sensor_id;sensor_type;location;lat;lon;timestamp;pressure;altitude;pressure_sealevel;temperature;humidity
7888;BME280;3989;48.810;9.208;2023-02-13T10:47:05;100813.75;;;6.21;100.00
7888;BME280;3989;48.810;9.208;2023-02-13T10:49:48;100627.31;;;5.16;100.00
7888;BME280;3989;48.810;9.208;2023-02-13T11:01:07;100805.78;;;6.60;100.00
7888;BME280;3989;48.810;9.208;2023-02-13T11:06:34;100789.97;;;6.71;100.00
7888;BME280;3989;48.810;9.208;2023-02-13T11:09:04;100547.19;;;5.40;100.00
7888;BME280;3989;48.810;9.208;2023-02-13T11:11:35;100667.41;;;6.16;100.00
7888;BME280;3989;48.810;9.208;2023-02-13T11:14:12;100658.28;;;6.20;100.00
7888;BME280;3989;48.810;9.208;2023-02-13T11:16:43;100712.63;;;6.52;100.00
7888;BME280;3989;48.810;9.208;2023-02-13T11:19:18;100623.84;;;6.07;100.00
7888;BME280;3989;48.810;9.208;2023-02-13T11:21:52;100619.47;;;6.06;100.00
7888;BME280;3989;48.810;9.208;2023-02-13T11:24:21;100575.06;;;5.97;100.00
7888;BME280;3989;48.810;9.208;2023-02-13T11:26:51;100682.03;;;6.59;100.00
7888;BME280;3989;48.810;9.208;2023-02-13T11:29:24;100703.13;;;6.73;100.00
7888;BME280;3989;48.810;9.208;2023-02-13T11:32:20;100593.91;;;6.18;100.00
7888;BME280;3989;48.810;9.208;2023-02-13T11:34:48;100647.00;;;6.67;100.00
7888;BME280;3989;48.810;9.208;2023-02-13T11:37:21;100668.97;;;6.81;100.00
7888;BME280;3989;48.810;9.208;2023-02-13T11:39:50;100768.00;;;7.44;100.00
7888;BME280;3989;48.810;9.208;2023-02-13T11:42:25;100772.97;;;7.48;100.00
7888;BME280;3989;48.810;9.208;2023-02-13T11:44:56;100625.03;;;6.65;100.00
7888;BME280;3989;48.810;9.208;2023-02-13T11:47:36;100768.81;;;7.57;100.00
7888;BME280;3989;48.810;9.208;2023-02-13T11:50:04;100511.75;;;6.05;100.00
7888;BME280;3989;48.810;9.208;2023-02-13T11:52:34;100657.97;;;6.99;100.00
7888;BME280;3989;48.810;9.208;2023-02-13T11:55:04;100716.94;;;7.27;100.00
7888;BME280;3989;48.810;9.208;2023-02-13T11:57:34;100751.47;;;7.64;100.00
7888;BME280;3989;48.810;9.208;2023-02-13T12:00:27;100721.34;;;7.52;100.00
7888;BME280;3989;48.810;9.208;2023-02-13T12:02:56;100709.31;;;7.47;100.00
7888;BME280;3989;48.810;9.208;2023-02-13T12:05:25;100748.97;;;7.73;100.00
7888;BME280;3989;48.810;9.208;2023-02-13T12:07:59;100642.44;;;7.05;100.00
7888;BME280;3989;48.810;9.208;2023-02-13T12:10:27;100688.97;;;7.34;100.00
7888;BME280;3989;48.810;9.208;2023-02-13T12:13:05;100618.16;;;6.99;100.00
7888;BME280;3989;48.810;9.208;2023-02-13T12:15:38;100700.06;;;7.52;100.00
7888;BME280;3989;48.810;9.208;2023-02-13T12:18:12;100702.03;;;7.61;100.00
7888;BME280;3989;48.810;9.208;2023-02-13T12:20:49;100696.50;;;7.64;100.00
7888;BME280;3989;48.810;9.208;2023-02-13T12:23:29;100692.28;;;7.62;100.00
7888;BME280;3989;48.810;9.208;2023-02-13T12:26:06;100697.34;;;7.65;100.00
7888;BME280;3989;48.810;9.208;2023-02-13T12:28:49;100679.47;;;7.67;100.00
7888;BME280;3989;48.810;9.208;2023-02-13T12:31:29;100705.41;;;7.87;100.00
7888;BME280;3989;48.810;9.208;2023-02-13T12:37:13;100744.06;;;8.15;100.00
7888;BME280;3989;48.810;9.208;2023-02-13T12:39:53;100719.72;;;7.97;100.00
7888;BME280;3989;48.810;9.208;2023-02-13T12:42:30;100732.00;;;8.22;100.00
7888;BME280;3989;48.810;9.208;2023-02-13T12:45:19;100651.72;;;7.71;100.00
7888;BME280;3989;48.810;9.208;2023-02-13T12:48:01;100670.00;;;7.86;100.00
7888;BME280;3989;48.810;9.208;2023-02-13T12:50:37;100584.19;;;7.38;100.00
7888;BME280;3989;48.810;9.208;2023-02-13T12:53:23;100705.41;;;8.11;100.00
7888;BME280;3989;48.810;9.208;2023-02-13T12:56:11;100636.25;;;7.76;100.00
7888;BME280;3989;48.810;9.208;2023-02-13T12:59:02;100589.91;;;7.56;100.00
7888;BME280;3989;48.810;9.208;2023-02-13T13:01:49;100501.72;;;7.05;100.00
7888;BME280;3989;48.810;9.208;2023-02-13T13:04:24;100538.09;;;7.39;100.00
7888;BME280;3989;48.810;9.208;2023-02-13T13:07:13;100698.72;;;8.40;100.00
7888;BME280;3989;48.810;9.208;2023-02-13T13:09:54;100712.75;;;8.53;100.00
7888;BME280;3989;48.810;9.208;2023-02-13T13:12:46;100602.84;;;7.96;100.00
7888;BME280;3989;48.810;9.208;2023-02-13T13:15:19;100657.84;;;8.30;100.00
7888;BME280;3989;48.810;9.208;2023-02-13T13:18:02;100666.31;;;8.46;100.00
7888;BME280;3989;48.810;9.208;2023-02-13T13:20:41;100652.75;;;8.38;100.00
7888;BME280;3989;48.810;9.208;2023-02-13T13:23:18;100634.88;;;8.40;100.00
7888;BME280;3989;48.810;9.208;2023-02-13T13:25:52;100619.88;;;8.39;100.00
7888;BME280;3989;48.810;9.208;2023-02-13T13:28:27;100706.50;;;8.87;100.00
7888;BME280;3989;48.810;9.208;2023-02-13T13:30:56;100697.31;;;8.91;100.00
7888;BME280;3989;48.810;9.208;2023-02-13T13:33:25;100379.50;;;7.07;100.00
7888;BME280;3989;48.810;9.208;2023-02-13T13:35:59;100685.94;;;8.78;100.00
7888;BME280;3989;48.810;9.208;2023-02-13T13:38:36;100389.16;;;7.08;100.00
7888;BME280;3989;48.810;9.208;2023-02-13T13:41:10;100686.16;;;8.86;100.00
7888;BME280;3989;48.810;9.208;2023-02-13T13:43:51;100503.25;;;7.77;100.00
7888;BME280;3989;48.810;9.208;2023-02-13T13:46:29;100662.78;;;8.79;100.00
7888;BME280;3989;48.810;9.208;2023-02-13T13:49:09;100659.66;;;8.63;100.00
7888;BME280;3989;48.810;9.208;2023-02-13T13:51:38;100518.81;;;7.82;100.00
7888;BME280;3989;48.810;9.208;2023-02-13T13:57:06;100661.59;;;8.83;100.00
7888;BME280;3989;48.810;9.208;2023-02-13T14:00:00;100681.09;;;8.94;100.00
7888;BME280;3989;48.810;9.208;2023-02-13T14:02:38;100553.19;;;8.18;100.00
7888;BME280;3989;48.810;9.208;2023-02-13T14:05:25;100537.59;;;8.14;100.00
7888;BME280;3989;48.810;9.208;2023-02-13T14:07:55;100477.63;;;7.76;100.00
7888;BME280;3989;48.810;9.208;2023-02-13T14:13:36;100636.69;;;8.62;100.00
7888;BME280;3989;48.810;9.208;2023-02-13T14:16:08;100553.44;;;8.26;100.00
7888;BME280;3989;48.810;9.208;2023-02-13T14:18:35;100574.28;;;8.32;100.00
7888;BME280;3989;48.810;9.208;2023-02-13T14:21:04;100624.44;;;8.70;100.00
7888;BME280;3989;48.810;9.208;2023-02-13T14:23:34;100614.19;;;8.66;100.00
7888;BME280;3989;48.810;9.208;2023-02-13T14:26:17;100673.44;;;9.01;100.00
7888;BME280;3989;48.810;9.208;2023-02-13T14:28:56;100342.81;;;7.12;100.00
7888;BME280;3989;48.810;9.208;2023-02-13T14:31:27;100691.22;;;9.12;100.00
7888;BME280;3989;48.810;9.208;2023-02-13T14:33:55;100646.72;;;8.80;100.00
7888;BME280;3989;48.810;9.208;2023-02-13T14:36:26;100629.06;;;8.68;100.00
7888;BME280;3989;48.810;9.208;2023-02-13T14:38:58;100627.50;;;8.66;100.00
7888;BME280;3989;48.810;9.208;2023-02-13T14:41:44;100475.59;;;7.69;100.00
7888;BME280;3989;48.810;9.208;2023-02-13T14:44:17;100654.69;;;8.80;100.00
7888;BME280;3989;48.810;9.208;2023-02-13T14:46:48;100471.25;;;7.68;100.00
7888;BME280;3989;48.810;9.208;2023-02-13T14:49:18;100380.38;;;7.07;100.00
7888;BME280;3989;48.810;9.208;2023-02-13T14:51:48;100654.69;;;8.69;100.00
7888;BME280;3989;48.810;9.208;2023-02-13T14:54:21;100683.25;;;8.89;100.00
7888;BME280;3989;48.810;9.208;2023-02-13T14:56:51;100652.75;;;8.60;100.00
7888;BME280;3989;48.810;9.208;2023-02-13T14:59:22;100652.28;;;8.66;100.00
7888;BME280;3989;48.810;9.208;2023-02-13T15:01:53;100606.06;;;8.34;100.00
7888;BME280;3989;48.810;9.208;2023-02-13T15:04:29;100451.63;;;7.47;100.00
7888;BME280;3989;48.810;9.208;2023-02-13T15:09:36;100658.94;;;8.61;100.00
7888;BME280;3989;48.810;9.208;2023-02-13T15:12:04;100557.53;;;7.97;100.00
7888;BME280;3989;48.810;9.208;2023-02-13T15:14:49;100612.22;;;8.23;100.00
7888;BME280;3989;48.810;9.208;2023-02-13T15:17:20;100596.34;;;8.11;100.00
7888;BME280;3989;48.810;9.208;2023-02-13T15:19:50;100541.09;;;7.81;100.00
7888;BME280;3989;48.810;9.208;2023-02-13T15:24:57;100565.72;;;7.83;100.00
7888;BME280;3989;48.810;9.208;2023-02-13T15:27:39;100653.84;;;8.35;100.00
7888;BME280;3989;48.810;9.208;2023-02-13T15:40:57;100544.81;;;7.32;100.00
7888;BME280;3989;48.810;9.208;2023-02-13T15:43:42;100542.47;;;7.17;100.00
7888;BME280;3989;48.810;9.208;2023-02-13T15:49:00;100482.28;;;6.46;100.00
7888;BME280;3989;48.810;9.208;2023-02-13T15:51:41;100608.00;;;7.16;100.00
7888;BME280;3989;48.810;9.208;2023-02-13T15:54:22;100654.41;;;7.23;100.00
7888;BME280;3989;48.810;9.208;2023-02-13T15:56:57;100528.09;;;6.48;100.00
7888;BME280;3989;48.810;9.208;2023-02-13T15:59:28;100574.63;;;6.65;100.00
7888;BME280;3989;48.810;9.208;2023-02-13T16:01:59;100564.59;;;6.45;100.00
